sensor_id;sensor_type;location;lat;lon;timestamp;P1;durP1;ratioP1;P2;durP2;ratioP2
20480;SDS011;10399;50.754;3.366;2022-09-21T00:01:18;10.23;;;6.03;;
20480;SDS011;10399;50.754;3.366;2022-09-21T00:03:50;12.88;;;5.85;;
20480;SDS011;10399;50.754;3.366;2022-09-21T00:06:23;11.63;;;6.53;;
20480;SDS011;10399;50.754;3.366;2022-09-21T00:08:53;11.70;;;6.55;;
20480;SDS011;10399;50.754;3.366;2022-09-21T00:11:22;9.45;;;5.90;;
20480;SDS011;10399;50.754;3.366;2022-09-21T00:13:56;15.05;;;6.30;;
20480;SDS011;10399;50.754;3.366;2022-09-21T00:16:26;11.75;;;6.53;;
20480;SDS011;10399;50.754;3.366;2022-09-21T00:18:54;10.60;;;6.97;;
20480;SDS011;10399;50.754;3.366;2022-09-21T00:21:21;11.25;;;7.20;;
20480;SDS011;10399;50.754;3.366;2022-09-21T00:23:49;12.20;;;7.13;;
20480;SDS011;10399;50.754;3.366;2022-09-21T00:26:18;10.13;;;7.18;;
20480;SDS011;10399;50.754;3.366;2022-09-21T00:28:50;11.90;;;7.72;;
20480;SDS011;10399;50.754;3.366;2022-09-21T00:31:20;15.77;;;7.18;;
20480;SDS011;10399;50.754;3.366;2022-09-21T00:33:48;14.57;;;7.55;;
20480;SDS011;10399;50.754;3.366;2022-09-21T00:36:17;14.40;;;8.43;;
20480;SDS011;10399;50.754;3.366;2022-09-21T00:38:55;15.82;;;7.45;;
20480;SDS011;10399;50.754;3.366;2022-09-21T00:41:24;11.18;;;7.78;;
20480;SDS011;10399;50.754;3.366;2022-09-21T00:46:43;14.77;;;7.88;;
20480;SDS011;10399;50.754;3.366;2022-09-21T00:49:11;10.52;;;7.15;;
20480;SDS011;10399;50.754;3.366;2022-09-21T00:51:39;10.75;;;6.75;;
20480;SDS011;10399;50.754;3.366;2022-09-21T00:54:08;12.68;;;7.30;;
20480;SDS011;10399;50.754;3.366;2022-09-21T00:56:43;10.80;;;7.20;;
20480;SDS011;10399;50.754;3.366;2022-09-21T00:59:10;11.73;;;7.38;;
20480;SDS011;10399;50.754;3.366;2022-09-21T01:01:40;12.25;;;6.90;;
20480;SDS011;10399;50.754;3.366;2022-09-21T01:04:08;12.10;;;7.72;;
20480;SDS011;10399;50.754;3.366;2022-09-21T01:06:37;12.80;;;8.23;;
20480;SDS011;10399;50.754;3.366;2022-09-21T01:09:05;13.02;;;7.85;;
20480;SDS011;10399;50.754;3.366;2022-09-21T01:28:03;12.30;;;7.90;;
20480;SDS011;10399;50.754;3.366;2022-09-21T01:30:32;12.95;;;8.23;;
20480;SDS011;10399;50.754;3.366;2022-09-21T01:33:20;17.48;;;9.18;;
20480;SDS011;10399;50.754;3.366;2022-09-21T01:36:00;19.65;;;8.07;;
20480;SDS011;10399;50.754;3.366;2022-09-21T01:38:39;15.32;;;8.73;;
20480;SDS011;10399;50.754;3.366;2022-09-21T01:41:16;14.10;;;8.00;;
20480;SDS011;10399;50.754;3.366;2022-09-21T01:43:47;11.88;;;7.82;;
20480;SDS011;10399;50.754;3.366;2022-09-21T01:46:18;15.38;;;8.18;;
20480;SDS011;10399;50.754;3.366;2022-09-21T01:48:50;11.73;;;7.82;;
20480;SDS011;10399;50.754;3.366;2022-09-21T01:51:21;13.18;;;8.60;;
20480;SDS011;10399;50.754;3.366;2022-09-21T01:53:57;15.65;;;8.45;;
20480;SDS011;10399;50.754;3.366;2022-09-21T01:59:31;12.70;;;7.25;;
20480;SDS011;10399;50.754;3.366;2022-09-21T02:02:23;14.15;;;7.68;;
20480;SDS011;10399;50.754;3.366;2022-09-21T02:05:00;13.90;;;8.23;;
20480;SDS011;10399;50.754;3.366;2022-09-21T02:07:30;13.40;;;8.43;;
20480;SDS011;10399;50.754;3.366;2022-09-21T02:09:59;11.65;;;8.05;;
20480;SDS011;10399;50.754;3.366;2022-09-21T02:12:27;10.73;;;8.30;;
20480;SDS011;10399;50.754;3.366;2022-09-21T02:14:57;11.63;;;8.10;;
20480;SDS011;10399;50.754;3.366;2022-09-21T02:20:21;10.75;;;8.07;;
20480;SDS011;10399;50.754;3.366;2022-09-21T02:39:56;14.80;;;8.30;;
20480;SDS011;10399;50.754;3.366;2022-09-21T02:42:30;10.73;;;8.13;;
20480;SDS011;10399;50.754;3.366;2022-09-21T02:47:33;11.25;;;8.48;;
20480;SDS011;10399;50.754;3.366;2022-09-21T02:50:15;16.85;;;9.65;;
20480;SDS011;10399;50.754;3.366;2022-09-21T02:52:47;14.73;;;9.23;;
20480;SDS011;10399;50.754;3.366;2022-09-21T02:55:14;14.93;;;8.88;;
20480;SDS011;10399;50.754;3.366;2022-09-21T02:57:43;14.15;;;9.45;;
20480;SDS011;10399;50.754;3.366;2022-09-21T03:00:13;11.77;;;8.57;;
20480;SDS011;10399;50.754;3.366;2022-09-21T03:02:43;15.40;;;9.07;;
20480;SDS011;10399;50.754;3.366;2022-09-21T03:05:12;13.77;;;8.18;;
20480;SDS011;10399;50.754;3.366;2022-09-21T03:07:40;13.95;;;8.77;;
20480;SDS011;10399;50.754;3.366;2022-09-21T03:10:07;17.50;;;9.80;;
20480;SDS011;10399;50.754;3.366;2022-09-21T03:12:34;13.48;;;9.13;;
20480;SDS011;10399;50.754;3.366;2022-09-21T03:15:02;12.88;;;9.40;;
20480;SDS011;10399;50.754;3.366;2022-09-21T03:17:30;13.93;;;8.63;;
20480;SDS011;10399;50.754;3.366;2022-09-21T03:19:57;15.07;;;9.15;;
20480;SDS011;10399;50.754;3.366;2022-09-21T03:22:24;14.07;;;8.80;;
20480;SDS011;10399;50.754;3.366;2022-09-21T03:24:51;19.45;;;9.32;;
20480;SDS011;10399;50.754;3.366;2022-09-21T03:27:22;13.85;;;8.93;;
20480;SDS011;10399;50.754;3.366;2022-09-21T03:29:49;12.20;;;8.70;;
20480;SDS011;10399;50.754;3.366;2022-09-21T03:32:17;12.80;;;9.38;;
20480;SDS011;10399;50.754;3.366;2022-09-21T03:34:44;15.68;;;9.63;;
20480;SDS011;10399;50.754;3.366;2022-09-21T03:37:11;14.25;;;9.30;;
20480;SDS011;10399;50.754;3.366;2022-09-21T03:39:37;20.02;;;10.27;;
20480;SDS011;10399;50.754;3.366;2022-09-21T03:42:04;18.42;;;10.23;;
20480;SDS011;10399;50.754;3.366;2022-09-21T03:44:31;12.88;;;9.57;;
20480;SDS011;10399;50.754;3.366;2022-09-21T03:46:58;12.27;;;9.20;;
20480;SDS011;10399;50.754;3.366;2022-09-21T03:49:25;13.75;;;9.65;;
20480;SDS011;10399;50.754;3.366;2022-09-21T03:51:52;16.15;;;9.73;;
20480;SDS011;10399;50.754;3.366;2022-09-21T03:54:21;19.55;;;9.82;;
20480;SDS011;10399;50.754;3.366;2022-09-21T03:56:47;15.57;;;9.98;;
20480;SDS011;10399;50.754;3.366;2022-09-21T03:59:14;16.20;;;10.35;;
20480;SDS011;10399;50.754;3.366;2022-09-21T04:01:41;15.75;;;11.10;;
20480;SDS011;10399;50.754;3.366;2022-09-21T04:04:09;18.48;;;10.82;;
20480;SDS011;10399;50.754;3.366;2022-09-21T04:06:35;15.38;;;10.23;;
20480;SDS011;10399;50.754;3.366;2022-09-21T04:09:02;19.63;;;11.57;;
20480;SDS011;10399;50.754;3.366;2022-09-21T04:11:29;15.93;;;10.75;;
20480;SDS011;10399;50.754;3.366;2022-09-21T04:13:57;14.70;;;9.73;;
20480;SDS011;10399;50.754;3.366;2022-09-21T04:16:25;18.33;;;9.60;;
20480;SDS011;10399;50.754;3.366;2022-09-21T04:18:53;13.07;;;8.38;;
20480;SDS011;10399;50.754;3.366;2022-09-21T04:21:20;12.93;;;9.48;;
20480;SDS011;10399;50.754;3.366;2022-09-21T04:23:47;13.32;;;9.05;;
20480;SDS011;10399;50.754;3.366;2022-09-21T04:26:28;13.55;;;8.85;;
20480;SDS011;10399;50.754;3.366;2022-09-21T04:28:59;12.20;;;7.82;;
20480;SDS011;10399;50.754;3.366;2022-09-21T04:31:27;12.55;;;8.50;;
20480;SDS011;10399;50.754;3.366;2022-09-21T04:33:55;9.98;;;8.20;;
20480;SDS011;10399;50.754;3.366;2022-09-21T04:36:24;10.00;;;7.22;;
20480;SDS011;10399;50.754;3.366;2022-09-21T04:39:02;8.48;;;7.03;;
20480;SDS011;10399;50.754;3.366;2022-09-21T04:41:30;8.63;;;7.00;;
20480;SDS011;10399;50.754;3.366;2022-09-21T04:43:57;9.68;;;6.38;;
20480;SDS011;10399;50.754;3.366;2022-09-21T04:46:25;7.80;;;6.60;;
20480;SDS011;10399;50.754;3.366;2022-09-21T04:48:52;12.88;;;7.18;;
20480;SDS011;10399;50.754;3.366;2022-09-21T04:51:18;9.90;;;6.18;;
20480;SDS011;10399;50.754;3.366;2022-09-21T04:53:45;10.75;;;7.53;;
20480;SDS011;10399;50.754;3.366;2022-09-21T04:56:13;10.80;;;7.53;;
20480;SDS011;10399;50.754;3.366;2022-09-21T04:58:40;11.27;;;7.53;;
20480;SDS011;10399;50.754;3.366;2022-09-21T05:01:08;8.88;;;7.18;;
20480;SDS011;10399;50.754;3.366;2022-09-21T05:03:37;15.70;;;8.13;;
20480;SDS011;10399;50.754;3.366;2022-09-21T05:06:04;13.50;;;8.43;;
20480;SDS011;10399;50.754;3.366;2022-09-21T05:08:31;12.05;;;8.13;;
20480;SDS011;10399;50.754;3.366;2022-09-21T05:11:17;13.48;;;8.15;;
20480;SDS011;10399;50.754;3.366;2022-09-21T05:13:44;11.75;;;8.43;;
20480;SDS011;10399;50.754;3.366;2022-09-21T05:16:12;10.83;;;8.33;;
20480;SDS011;10399;50.754;3.366;2022-09-21T05:18:40;9.93;;;8.15;;
20480;SDS011;10399;50.754;3.366;2022-09-21T05:21:08;10.60;;;7.95;;
20480;SDS011;10399;50.754;3.366;2022-09-21T05:23:36;11.43;;;7.75;;
20480;SDS011;10399;50.754;3.366;2022-09-21T05:26:04;26.13;;;8.55;;
20480;SDS011;10399;50.754;3.366;2022-09-21T05:28:31;9.95;;;7.22;;
20480;SDS011;10399;50.754;3.366;2022-09-21T05:33:50;54.58;;;7.70;;
20480;SDS011;10399;50.754;3.366;2022-09-21T05:36:26;24.63;;;6.40;;
20480;SDS011;10399;50.754;3.366;2022-09-21T05:38:59;73.47;;;7.53;;
20480;SDS011;10399;50.754;3.366;2022-09-21T05:41:26;50.80;;;7.57;;
20480;SDS011;10399;50.754;3.366;2022-09-21T05:43:54;64.88;;;7.35;;
20480;SDS011;10399;50.754;3.366;2022-09-21T05:46:31;14.23;;;6.57;;
20480;SDS011;10399;50.754;3.366;2022-09-21T05:49:18;17.88;;;6.60;;
20480;SDS011;10399;50.754;3.366;2022-09-21T05:57:15;6.90;;;6.10;;
20480;SDS011;10399;50.754;3.366;2022-09-21T05:59:57;7.30;;;5.88;;
20480;SDS011;10399;50.754;3.366;2022-09-21T06:02:52;8.88;;;6.05;;
20480;SDS011;10399;50.754;3.366;2022-09-21T06:05:43;7.78;;;6.03;;
20480;SDS011;10399;50.754;3.366;2022-09-21T06:08:10;8.35;;;6.45;;
20480;SDS011;10399;50.754;3.366;2022-09-21T06:10:37;8.77;;;6.45;;
20480;SDS011;10399;50.754;3.366;2022-09-21T06:13:04;9.38;;;7.45;;
20480;SDS011;10399;50.754;3.366;2022-09-21T06:15:32;9.07;;;7.28;;
20480;SDS011;10399;50.754;3.366;2022-09-21T06:18:04;11.77;;;7.82;;
20480;SDS011;10399;50.754;3.366;2022-09-21T06:20:39;10.10;;;7.22;;
20480;SDS011;10399;50.754;3.366;2022-09-21T06:23:07;23.58;;;9.15;;
20480;SDS011;10399;50.754;3.366;2022-09-21T06:25:36;23.35;;;10.07;;
20480;SDS011;10399;50.754;3.366;2022-09-21T06:28:07;23.63;;;9.57;;
20480;SDS011;10399;50.754;3.366;2022-09-21T06:30:37;22.48;;;10.20;;
20480;SDS011;10399;50.754;3.366;2022-09-21T06:33:06;22.55;;;9.77;;
20480;SDS011;10399;50.754;3.366;2022-09-21T06:35:34;14.75;;;9.63;;
20480;SDS011;10399;50.754;3.366;2022-09-21T06:38:03;23.20;;;9.90;;
20480;SDS011;10399;50.754;3.366;2022-09-21T06:40:33;28.65;;;10.70;;
20480;SDS011;10399;50.754;3.366;2022-09-21T06:43:02;28.65;;;9.48;;
20480;SDS011;10399;50.754;3.366;2022-09-21T06:45:30;22.40;;;8.48;;
20480;SDS011;10399;50.754;3.366;2022-09-21T06:47:57;13.90;;;8.00;;
20480;SDS011;10399;50.754;3.366;2022-09-21T06:50:24;14.15;;;7.00;;
20480;SDS011;10399;50.754;3.366;2022-09-21T06:52:52;11.25;;;6.28;;
20480;SDS011;10399;50.754;3.366;2022-09-21T06:55:18;11.10;;;7.63;;
20480;SDS011;10399;50.754;3.366;2022-09-21T06:57:46;16.48;;;7.18;;
20480;SDS011;10399;50.754;3.366;2022-09-21T07:00:13;16.95;;;7.20;;
20480;SDS011;10399;50.754;3.366;2022-09-21T07:02:43;15.95;;;7.70;;
20480;SDS011;10399;50.754;3.366;2022-09-21T07:05:11;15.27;;;8.25;;
20480;SDS011;10399;50.754;3.366;2022-09-21T07:07:38;24.25;;;8.13;;
20480;SDS011;10399;50.754;3.366;2022-09-21T07:10:06;17.33;;;8.07;;
20480;SDS011;10399;50.754;3.366;2022-09-21T07:12:40;16.42;;;8.38;;
20480;SDS011;10399;50.754;3.366;2022-09-21T07:15:07;14.52;;;8.43;;
20480;SDS011;10399;50.754;3.366;2022-09-21T07:17:36;12.93;;;7.88;;
20480;SDS011;10399;50.754;3.366;2022-09-21T07:20:04;15.00;;;8.10;;
20480;SDS011;10399;50.754;3.366;2022-09-21T07:22:33;11.43;;;7.63;;
20480;SDS011;10399;50.754;3.366;2022-09-21T07:25:01;16.65;;;8.27;;
20480;SDS011;10399;50.754;3.366;2022-09-21T07:27:29;13.52;;;8.65;;
20480;SDS011;10399;50.754;3.366;2022-09-21T07:29:57;16.27;;;8.38;;
20480;SDS011;10399;50.754;3.366;2022-09-21T07:32:24;16.70;;;8.45;;
20480;SDS011;10399;50.754;3.366;2022-09-21T07:34:51;20.10;;;7.78;;
20480;SDS011;10399;50.754;3.366;2022-09-21T07:37:22;11.70;;;7.78;;
20480;SDS011;10399;50.754;3.366;2022-09-21T07:39:50;16.75;;;8.40;;
20480;SDS011;10399;50.754;3.366;2022-09-21T07:42:18;13.85;;;8.15;;
20480;SDS011;10399;50.754;3.366;2022-09-21T07:44:48;13.65;;;8.10;;
20480;SDS011;10399;50.754;3.366;2022-09-21T07:47:16;14.18;;;8.07;;
20480;SDS011;10399;50.754;3.366;2022-09-21T07:49:43;17.63;;;9.13;;
20480;SDS011;10399;50.754;3.366;2022-09-21T07:52:12;13.65;;;8.95;;
20480;SDS011;10399;50.754;3.366;2022-09-21T07:54:40;20.80;;;9.90;;
20480;SDS011;10399;50.754;3.366;2022-09-21T07:57:07;19.38;;;10.73;;
20480;SDS011;10399;50.754;3.366;2022-09-21T07:59:53;17.77;;;11.18;;
20480;SDS011;10399;50.754;3.366;2022-09-21T08:02:23;16.58;;;11.20;;
20480;SDS011;10399;50.754;3.366;2022-09-21T08:04:50;17.75;;;11.07;;
20480;SDS011;10399;50.754;3.366;2022-09-21T08:07:18;17.67;;;11.30;;
20480;SDS011;10399;50.754;3.366;2022-09-21T08:09:45;18.23;;;11.48;;
20480;SDS011;10399;50.754;3.366;2022-09-21T08:12:14;15.23;;;9.95;;
20480;SDS011;10399;50.754;3.366;2022-09-21T08:14:44;16.50;;;8.85;;
20480;SDS011;10399;50.754;3.366;2022-09-21T08:17:10;13.60;;;9.48;;
20480;SDS011;10399;50.754;3.366;2022-09-21T08:19:37;15.32;;;9.20;;
20480;SDS011;10399;50.754;3.366;2022-09-21T08:22:05;13.18;;;8.20;;
20480;SDS011;10399;50.754;3.366;2022-09-21T08:24:32;15.80;;;7.57;;
20480;SDS011;10399;50.754;3.366;2022-09-21T08:27:00;9.73;;;6.40;;
20480;SDS011;10399;50.754;3.366;2022-09-21T08:29:27;10.40;;;6.22;;
20480;SDS011;10399;50.754;3.366;2022-09-21T08:31:55;13.27;;;6.53;;
20480;SDS011;10399;50.754;3.366;2022-09-21T08:34:23;13.40;;;6.65;;
20480;SDS011;10399;50.754;3.366;2022-09-21T08:36:51;10.70;;;5.00;;
20480;SDS011;10399;50.754;3.366;2022-09-21T08:39:21;9.77;;;4.97;;
20480;SDS011;10399;50.754;3.366;2022-09-21T08:44:37;11.48;;;5.60;;
20480;SDS011;10399;50.754;3.366;2022-09-21T08:47:20;10.88;;;4.70;;
20480;SDS011;10399;50.754;3.366;2022-09-21T08:50:55;10.38;;;5.75;;
20480;SDS011;10399;50.754;3.366;2022-09-21T08:53:00;10.77;;;5.30;;
20480;SDS011;10399;50.754;3.366;2022-09-21T08:55:31;10.68;;;5.63;;
20480;SDS011;10399;50.754;3.366;2022-09-21T08:57:58;9.73;;;4.85;;
20480;SDS011;10399;50.754;3.366;2022-09-21T09:00:26;10.10;;;4.72;;
20480;SDS011;10399;50.754;3.366;2022-09-21T09:05:46;6.72;;;4.45;;
20480;SDS011;10399;50.754;3.366;2022-09-21T09:11:36;11.05;;;4.40;;
20480;SDS011;10399;50.754;3.366;2022-09-21T09:14:26;9.57;;;4.13;;
20480;SDS011;10399;50.754;3.366;2022-09-21T09:20:10;9.98;;;3.78;;
20480;SDS011;10399;50.754;3.366;2022-09-21T09:23:12;8.25;;;3.50;;
20480;SDS011;10399;50.754;3.366;2022-09-21T09:25:49;11.38;;;4.22;;
20480;SDS011;10399;50.754;3.366;2022-09-21T09:28:23;7.20;;;3.72;;
20480;SDS011;10399;50.754;3.366;2022-09-21T09:31:03;14.82;;;3.60;;
20480;SDS011;10399;50.754;3.366;2022-09-21T09:33:52;8.90;;;3.40;;
20480;SDS011;10399;50.754;3.366;2022-09-21T09:36:26;10.25;;;3.40;;
20480;SDS011;10399;50.754;3.366;2022-09-21T09:39:18;5.93;;;3.22;;
20480;SDS011;10399;50.754;3.366;2022-09-21T09:41:57;10.05;;;3.72;;
20480;SDS011;10399;50.754;3.366;2022-09-21T09:47:02;11.85;;;3.55;;
20480;SDS011;10399;50.754;3.366;2022-09-21T09:52:25;9.80;;;3.42;;
20480;SDS011;10399;50.754;3.366;2022-09-21T09:54:53;8.45;;;2.30;;
20480;SDS011;10399;50.754;3.366;2022-09-21T09:57:23;6.30;;;2.13;;
20480;SDS011;10399;50.754;3.366;2022-09-21T09:59:55;10.13;;;2.50;;
20480;SDS011;10399;50.754;3.366;2022-09-21T10:02:50;5.65;;;2.53;;
20480;SDS011;10399;50.754;3.366;2022-09-21T10:05:52;9.82;;;2.17;;
20480;SDS011;10399;50.754;3.366;2022-09-21T10:11:18;5.80;;;1.25;;
20480;SDS011;10399;50.754;3.366;2022-09-21T10:13:46;7.45;;;1.10;;
20480;SDS011;10399;50.754;3.366;2022-09-21T10:16:18;4.53;;;1.05;;
20480;SDS011;10399;50.754;3.366;2022-09-21T10:21:25;9.52;;;1.65;;
20480;SDS011;10399;50.754;3.366;2022-09-21T10:24:05;7.15;;;1.27;;
20480;SDS011;10399;50.754;3.366;2022-09-21T10:26:50;4.00;;;1.38;;
20480;SDS011;10399;50.754;3.366;2022-09-21T10:34:22;7.07;;;1.10;;
20480;SDS011;10399;50.754;3.366;2022-09-21T10:36:52;5.68;;;1.50;;
20480;SDS011;10399;50.754;3.366;2022-09-21T10:39:23;6.65;;;1.58;;
20480;SDS011;10399;50.754;3.366;2022-09-21T10:44:25;5.15;;;1.55;;
20480;SDS011;10399;50.754;3.366;2022-09-21T10:49:54;8.02;;;2.08;;
20480;SDS011;10399;50.754;3.366;2022-09-21T10:52:23;7.75;;;1.75;;
20480;SDS011;10399;50.754;3.366;2022-09-21T10:54:58;5.75;;;1.50;;
20480;SDS011;10399;50.754;3.366;2022-09-21T10:57:25;2.88;;;1.10;;
20480;SDS011;10399;50.754;3.366;2022-09-21T10:59:54;3.38;;;1.25;;
20480;SDS011;10399;50.754;3.366;2022-09-21T11:04:52;5.57;;;1.45;;
20480;SDS011;10399;50.754;3.366;2022-09-21T11:15:46;3.55;;;1.70;;
20480;SDS011;10399;50.754;3.366;2022-09-21T11:21:40;4.10;;;1.30;;
20480;SDS011;10399;50.754;3.366;2022-09-21T11:27:32;5.90;;;1.45;;
20480;SDS011;10399;50.754;3.366;2022-09-21T11:30:11;9.07;;;1.88;;
20480;SDS011;10399;50.754;3.366;2022-09-21T11:40:53;5.75;;;1.67;;
20480;SDS011;10399;50.754;3.366;2022-09-21T11:46:37;4.50;;;1.30;;
20480;SDS011;10399;50.754;3.366;2022-09-21T11:52:24;6.50;;;1.08;;
20480;SDS011;10399;50.754;3.366;2022-09-21T12:00:29;5.18;;;1.08;;
20480;SDS011;10399;50.754;3.366;2022-09-21T12:06:36;2.03;;;0.93;;
20480;SDS011;10399;50.754;3.366;2022-09-21T12:12:31;1.65;;;0.90;;
20480;SDS011;10399;50.754;3.366;2022-09-21T12:17:40;11.88;;;1.10;;
20480;SDS011;10399;50.754;3.366;2022-09-21T12:20:20;9.00;;;1.10;;
20480;SDS011;10399;50.754;3.366;2022-09-21T12:22:50;4.05;;;0.90;;
20480;SDS011;10399;50.754;3.366;2022-09-21T12:25:27;4.47;;;1.10;;
20480;SDS011;10399;50.754;3.366;2022-09-21T12:28:04;5.88;;;1.25;;
20480;SDS011;10399;50.754;3.366;2022-09-21T12:30:40;4.88;;;1.35;;
20480;SDS011;10399;50.754;3.366;2022-09-21T12:35:44;3.42;;;1.20;;
20480;SDS011;10399;50.754;3.366;2022-09-21T12:38:44;3.65;;;0.85;;
20480;SDS011;10399;50.754;3.366;2022-09-21T12:44:24;7.18;;;1.20;;
20480;SDS011;10399;50.754;3.366;2022-09-21T12:47:24;6.20;;;1.20;;
20480;SDS011;10399;50.754;3.366;2022-09-21T12:52:50;6.43;;;1.45;;
20480;SDS011;10399;50.754;3.366;2022-09-21T12:57:54;9.50;;;1.35;;
20480;SDS011;10399;50.754;3.366;2022-09-21T13:03:48;3.92;;;1.17;;
20480;SDS011;10399;50.754;3.366;2022-09-21T13:06:35;2.53;;;1.15;;
20480;SDS011;10399;50.754;3.366;2022-09-21T13:09:24;2.17;;;0.90;;
20480;SDS011;10399;50.754;3.366;2022-09-21T13:11:53;5.70;;;1.20;;
20480;SDS011;10399;50.754;3.366;2022-09-21T13:14:32;6.57;;;1.58;;
20480;SDS011;10399;50.754;3.366;2022-09-21T13:17:02;3.40;;;0.80;;
20480;SDS011;10399;50.754;3.366;2022-09-21T13:19:34;4.43;;;0.93;;
20480;SDS011;10399;50.754;3.366;2022-09-21T13:24:59;3.92;;;1.10;;
20480;SDS011;10399;50.754;3.366;2022-09-21T13:40:59;8.00;;;1.00;;
20480;SDS011;10399;50.754;3.366;2022-09-21T13:51:33;3.95;;;1.00;;
20480;SDS011;10399;50.754;3.366;2022-09-21T13:54:01;10.15;;;1.52;;
20480;SDS011;10399;50.754;3.366;2022-09-21T13:56:29;4.10;;;1.05;;
20480;SDS011;10399;50.754;3.366;2022-09-21T13:58:58;5.30;;;1.00;;
20480;SDS011;10399;50.754;3.366;2022-09-21T14:01:30;6.45;;;1.27;;
20480;SDS011;10399;50.754;3.366;2022-09-21T14:04:23;4.97;;;1.25;;
20480;SDS011;10399;50.754;3.366;2022-09-21T14:06:56;4.30;;;1.10;;
20480;SDS011;10399;50.754;3.366;2022-09-21T14:09:29;3.38;;;1.20;;
20480;SDS011;10399;50.754;3.366;2022-09-21T14:12:01;3.50;;;0.98;;
20480;SDS011;10399;50.754;3.366;2022-09-21T14:14:32;7.75;;;0.90;;
20480;SDS011;10399;50.754;3.366;2022-09-21T14:17:04;1.67;;;0.75;;
20480;SDS011;10399;50.754;3.366;2022-09-21T14:24:46;3.15;;;0.80;;
20480;SDS011;10399;50.754;3.366;2022-09-21T14:27:21;8.50;;;1.17;;
20480;SDS011;10399;50.754;3.366;2022-09-21T14:30:04;6.95;;;1.17;;
20480;SDS011;10399;50.754;3.366;2022-09-21T14:35:29;4.22;;;0.98;;
20480;SDS011;10399;50.754;3.366;2022-09-21T14:38:00;2.95;;;0.95;;
20480;SDS011;10399;50.754;3.366;2022-09-21T14:40:33;4.57;;;1.10;;
20480;SDS011;10399;50.754;3.366;2022-09-21T14:43:09;4.57;;;0.80;;
20480;SDS011;10399;50.754;3.366;2022-09-21T14:48:18;3.50;;;1.02;;
20480;SDS011;10399;50.754;3.366;2022-09-21T14:50:50;3.97;;;1.10;;
20480;SDS011;10399;50.754;3.366;2022-09-21T15:06:45;2.38;;;1.00;;
20480;SDS011;10399;50.754;3.366;2022-09-21T15:10:02;2.65;;;1.10;;
20480;SDS011;10399;50.754;3.366;2022-09-21T15:18:19;3.35;;;1.13;;
20480;SDS011;10399;50.754;3.366;2022-09-21T15:20:57;5.32;;;1.00;;
20480;SDS011;10399;50.754;3.366;2022-09-21T15:23:38;4.68;;;1.20;;
20480;SDS011;10399;50.754;3.366;2022-09-21T15:26:08;3.55;;;0.98;;
20480;SDS011;10399;50.754;3.366;2022-09-21T15:28:42;8.20;;;1.02;;
20480;SDS011;10399;50.754;3.366;2022-09-21T15:31:38;4.93;;;1.13;;
20480;SDS011;10399;50.754;3.366;2022-09-21T15:34:07;5.50;;;1.17;;
20480;SDS011;10399;50.754;3.366;2022-09-21T15:36:39;3.83;;;1.00;;
20480;SDS011;10399;50.754;3.366;2022-09-21T15:39:21;3.03;;;1.00;;
20480;SDS011;10399;50.754;3.366;2022-09-21T15:44:36;6.97;;;1.75;;
20480;SDS011;10399;50.754;3.366;2022-09-21T15:47:09;8.55;;;1.30;;
20480;SDS011;10399;50.754;3.366;2022-09-21T15:49:38;6.82;;;1.48;;
20480;SDS011;10399;50.754;3.366;2022-09-21T15:52:12;2.70;;;1.13;;
20480;SDS011;10399;50.754;3.366;2022-09-21T15:55:19;3.25;;;1.17;;
20480;SDS011;10399;50.754;3.366;2022-09-21T15:57:47;6.15;;;1.00;;
20480;SDS011;10399;50.754;3.366;2022-09-21T16:00:23;6.03;;;1.10;;
20480;SDS011;10399;50.754;3.366;2022-09-21T16:02:59;6.88;;;1.95;;
20480;SDS011;10399;50.754;3.366;2022-09-21T16:05:53;5.45;;;1.48;;
20480;SDS011;10399;50.754;3.366;2022-09-21T16:14:07;5.68;;;1.13;;
20480;SDS011;10399;50.754;3.366;2022-09-21T16:19:45;3.75;;;1.48;;
20480;SDS011;10399;50.754;3.366;2022-09-21T16:22:41;6.38;;;1.23;;
20480;SDS011;10399;50.754;3.366;2022-09-21T16:27:56;4.22;;;1.15;;
20480;SDS011;10399;50.754;3.366;2022-09-21T16:38:45;6.22;;;1.42;;
20480;SDS011;10399;50.754;3.366;2022-09-21T16:41:12;7.78;;;1.73;;
20480;SDS011;10399;50.754;3.366;2022-09-21T16:43:39;7.75;;;1.90;;
20480;SDS011;10399;50.754;3.366;2022-09-21T16:46:11;5.88;;;1.35;;
20480;SDS011;10399;50.754;3.366;2022-09-21T16:48:39;4.68;;;1.38;;
20480;SDS011;10399;50.754;3.366;2022-09-21T16:51:10;6.50;;;1.95;;
20480;SDS011;10399;50.754;3.366;2022-09-21T16:53:38;3.10;;;1.50;;
20480;SDS011;10399;50.754;3.366;2022-09-21T16:56:12;3.05;;;1.60;;
20480;SDS011;10399;50.754;3.366;2022-09-21T16:58:40;4.75;;;1.70;;
20480;SDS011;10399;50.754;3.366;2022-09-21T17:01:11;4.45;;;1.63;;
20480;SDS011;10399;50.754;3.366;2022-09-21T17:03:41;4.50;;;2.00;;
20480;SDS011;10399;50.754;3.366;2022-09-21T17:06:18;2.95;;;1.48;;
20480;SDS011;10399;50.754;3.366;2022-09-21T17:08:47;5.57;;;1.58;;
20480;SDS011;10399;50.754;3.366;2022-09-21T17:11:15;4.60;;;1.80;;
20480;SDS011;10399;50.754;3.366;2022-09-21T17:13:45;8.02;;;1.75;;
20480;SDS011;10399;50.754;3.366;2022-09-21T17:16:13;9.73;;;2.72;;
20480;SDS011;10399;50.754;3.366;2022-09-21T17:18:43;13.02;;;2.15;;
20480;SDS011;10399;50.754;3.366;2022-09-21T17:21:11;5.18;;;2.20;;
20480;SDS011;10399;50.754;3.366;2022-09-21T17:23:38;8.88;;;2.45;;
20480;SDS011;10399;50.754;3.366;2022-09-21T17:26:14;8.90;;;1.77;;
20480;SDS011;10399;50.754;3.366;2022-09-21T17:28:46;6.13;;;1.95;;
20480;SDS011;10399;50.754;3.366;2022-09-21T17:31:13;6.22;;;1.75;;
20480;SDS011;10399;50.754;3.366;2022-09-21T17:33:42;4.75;;;1.60;;
20480;SDS011;10399;50.754;3.366;2022-09-21T17:36:12;4.97;;;1.73;;
20480;SDS011;10399;50.754;3.366;2022-09-21T17:38:40;5.97;;;1.45;;
20480;SDS011;10399;50.754;3.366;2022-09-21T17:41:30;4.50;;;1.85;;
20480;SDS011;10399;50.754;3.366;2022-09-21T17:49:23;7.82;;;1.90;;
20480;SDS011;10399;50.754;3.366;2022-09-21T17:51:51;6.32;;;1.83;;
20480;SDS011;10399;50.754;3.366;2022-09-21T17:54:36;15.80;;;9.00;;
20480;SDS011;10399;50.754;3.366;2022-09-21T17:57:13;13.20;;;7.50;;
20480;SDS011;10399;50.754;3.366;2022-09-21T17:59:53;17.80;;;8.32;;
20480;SDS011;10399;50.754;3.366;2022-09-21T18:02:29;9.43;;;5.85;;
20480;SDS011;10399;50.754;3.366;2022-09-21T18:04:58;9.15;;;3.33;;
20480;SDS011;10399;50.754;3.366;2022-09-21T18:07:29;8.15;;;2.72;;
20480;SDS011;10399;50.754;3.366;2022-09-21T18:09:56;5.13;;;2.58;;
20480;SDS011;10399;50.754;3.366;2022-09-21T18:15:19;4.35;;;2.03;;
20480;SDS011;10399;50.754;3.366;2022-09-21T18:23:32;8.77;;;2.83;;
20480;SDS011;10399;50.754;3.366;2022-09-21T18:26:09;4.80;;;2.20;;
20480;SDS011;10399;50.754;3.366;2022-09-21T18:28:45;6.20;;;2.13;;
20480;SDS011;10399;50.754;3.366;2022-09-21T18:45:23;6.53;;;3.38;;
20480;SDS011;10399;50.754;3.366;2022-09-21T18:50:29;7.75;;;3.47;;
20480;SDS011;10399;50.754;3.366;2022-09-21T18:53:08;6.53;;;4.13;;
20480;SDS011;10399;50.754;3.366;2022-09-21T18:55:46;6.65;;;4.20;;
20480;SDS011;10399;50.754;3.366;2022-09-21T18:58:14;8.98;;;4.18;;
20480;SDS011;10399;50.754;3.366;2022-09-21T19:00:41;13.55;;;4.68;;
20480;SDS011;10399;50.754;3.366;2022-09-21T19:03:13;11.52;;;4.35;;
20480;SDS011;10399;50.754;3.366;2022-09-21T19:05:46;8.85;;;5.10;;
20480;SDS011;10399;50.754;3.366;2022-09-21T19:11:03;11.40;;;4.55;;
20480;SDS011;10399;50.754;3.366;2022-09-21T19:32:08;8.85;;;4.32;;
20480;SDS011;10399;50.754;3.366;2022-09-21T19:34:57;8.75;;;4.55;;
20480;SDS011;10399;50.754;3.366;2022-09-21T19:37:36;10.10;;;4.95;;
20480;SDS011;10399;50.754;3.366;2022-09-21T19:40:05;11.02;;;4.30;;
20480;SDS011;10399;50.754;3.366;2022-09-21T19:42:38;8.80;;;4.85;;
20480;SDS011;10399;50.754;3.366;2022-09-21T19:47:38;9.73;;;4.90;;
20480;SDS011;10399;50.754;3.366;2022-09-21T19:50:17;6.55;;;5.10;;